createdAt,value
2019-04-03T00:02:15.497Z,22.00
2019-04-03T00:04:42.628Z,16.57
2019-04-03T00:07:09.665Z,18.63
2019-04-03T00:09:36.820Z,19.80
2019-04-03T00:12:03.870Z,20.70
2019-04-03T00:14:30.977Z,18.27
2019-04-03T00:16:58.065Z,18.10
2019-04-03T00:19:25.113Z,18.60
2019-04-03T00:21:52.171Z,18.30
2019-04-03T00:24:21.971Z,20.23
2019-04-03T00:26:46.470Z,20.23
2019-04-03T00:29:13.512Z,18.83
2019-04-03T00:31:40.568Z,17.03
2019-04-03T00:34:07.670Z,20.43
2019-04-03T00:36:34.765Z,16.83
2019-04-03T00:39:03.549Z,16.53
2019-04-03T00:41:30.603Z,16.77
2019-04-03T00:43:58.568Z,17.50
2019-04-03T00:46:25.617Z,18.60
2019-04-03T00:48:55.569Z,19.33
2019-04-03T00:51:21.051Z,21.13
2019-04-03T00:53:48.095Z,20.73
2019-04-03T00:56:16.889Z,21.53
2019-04-03T00:58:43.932Z,24.37
2019-04-03T01:01:10.964Z,24.33
2019-04-03T01:03:38.062Z,22.83
2019-04-03T01:06:05.185Z,24.13
2019-04-03T01:08:32.226Z,25.90
2019-04-03T01:11:00.404Z,26.50
2019-04-03T01:13:26.428Z,27.00
2019-04-03T01:15:53.887Z,29.27
2019-04-03T01:18:20.943Z,27.93
2019-04-03T01:20:47.984Z,27.93
2019-04-03T01:23:15.034Z,27.03
2019-04-03T01:25:42.086Z,25.73
2019-04-03T01:28:09.794Z,26.13
2019-04-03T01:30:38.230Z,26.03
2019-04-03T01:33:05.274Z,24.93
2019-04-03T01:35:32.322Z,25.33
2019-04-03T01:37:59.386Z,23.80
2019-04-03T01:40:26.423Z,23.03
2019-04-03T01:42:53.571Z,24.17
2019-04-03T01:45:20.671Z,24.90
2019-04-03T01:47:47.697Z,24.70
2019-04-03T01:50:14.722Z,23.43
2019-04-03T01:52:41.770Z,24.20
2019-04-03T01:55:08.819Z,24.10
2019-04-03T01:57:36.697Z,23.33
2019-04-03T02:00:03.020Z,24.80
2019-04-03T02:02:30.062Z,25.00
2019-04-03T02:04:57.115Z,24.07
2019-04-03T02:07:24.161Z,24.57
2019-04-03T02:09:51.208Z,24.13
2019-04-03T02:12:19.770Z,25.50
2019-04-03T02:14:45.414Z,26.33
2019-04-03T02:17:12.507Z,26.83
2019-04-03T02:19:39.608Z,27.63
2019-04-03T02:22:06.860Z,26.73
2019-04-03T02:24:33.710Z,24.77
2019-04-03T02:27:02.747Z,25.93
2019-04-03T02:29:28.021Z,24.93
2019-04-03T02:31:55.056Z,25.03
2019-04-03T02:34:22.108Z,25.43
2019-04-03T02:36:49.482Z,25.07
2019-04-03T02:39:16.552Z,22.87
2019-04-03T02:41:43.561Z,25.43
2019-04-03T02:44:11.015Z,26.23
2019-04-03T02:46:38.068Z,24.83
2019-04-03T02:49:05.110Z,25.70
2019-04-03T02:51:32.163Z,25.37
2019-04-03T02:54:01.510Z,26.27
2019-04-03T02:56:26.369Z,25.70
2019-04-03T02:58:55.363Z,26.60
2019-04-03T03:01:21.484Z,27.20
2019-04-03T03:03:49.927Z,24.60
2019-04-03T03:06:17.527Z,25.70
2019-04-03T03:08:44.674Z,25.60
2019-04-03T03:11:12.041Z,27.17
2019-04-03T03:13:39.961Z,28.70
2019-04-03T03:16:07.048Z,29.57
2019-04-03T03:18:34.103Z,30.00
2019-04-03T03:21:02.582Z,30.70
2019-04-03T03:23:29.731Z,29.87
2019-04-03T03:25:56.828Z,28.20
2019-04-03T03:28:23.936Z,25.33
2019-04-03T03:30:59.591Z,25.37
2019-04-03T03:33:30.534Z,22.63
2019-04-03T03:35:48.521Z,26.23
2019-04-03T03:38:12.740Z,25.23
2019-04-03T03:40:39.890Z,26.57
2019-04-03T03:43:07.061Z,26.30
2019-04-03T03:45:34.090Z,27.77
2019-04-03T03:48:01.161Z,26.83
2019-04-03T03:50:28.296Z,25.20
2019-04-03T03:52:55.340Z,24.90
2019-04-03T03:55:24.333Z,26.60
2019-04-03T03:57:49.660Z,27.47
2019-04-03T04:00:17.918Z,29.97
2019-04-03T04:02:45.267Z,28.50
2019-04-03T04:05:12.383Z,27.37
2019-04-03T04:07:39.274Z,18.70
2019-04-03T04:10:06.433Z,20.70
2019-04-03T04:12:33.469Z,20.60
2019-04-03T04:15:00.761Z,20.53
2019-04-03T04:17:27.798Z,19.33
2019-04-03T04:19:54.818Z,19.17
2019-04-03T04:22:24.493Z,18.87
2019-04-03T04:24:49.021Z,20.20
2019-04-03T04:27:16.173Z,20.00
2019-04-03T04:29:43.305Z,19.37
2019-04-03T04:32:10.322Z,19.63
2019-04-03T04:34:37.419Z,19.40
2019-04-03T04:37:04.469Z,20.23
2019-04-03T04:39:31.642Z,19.73
2019-04-03T04:41:58.665Z,20.53
2019-04-03T04:44:25.918Z,24.27
2019-04-03T04:46:52.868Z,22.53
2019-04-03T04:49:20.829Z,20.47
2019-04-03T04:51:47.156Z,21.90
2019-04-03T04:54:14.223Z,21.50
2019-04-03T04:56:41.262Z,21.67
2019-04-03T04:59:08.311Z,20.23
2019-04-03T05:01:35.673Z,22.03
2019-04-03T05:04:02.716Z,22.17
2019-04-03T05:06:29.999Z,22.00
2019-04-03T05:08:57.020Z,21.93
2019-04-03T05:11:24.909Z,23.70
2019-04-03T05:13:51.831Z,24.13
2019-04-03T05:16:20.810Z,24.97
2019-04-03T05:18:47.133Z,24.87
2019-04-03T05:21:14.370Z,22.93
2019-04-03T05:23:41.581Z,27.07
2019-04-03T05:26:08.699Z,24.37
2019-04-03T05:28:35.658Z,31.83
2019-04-03T05:31:03.300Z,37.57
2019-04-03T05:33:30.371Z,26.60
2019-04-03T05:35:57.417Z,39.90
2019-04-03T05:38:24.472Z,29.90
2019-04-03T05:40:51.609Z,24.43
2019-04-03T05:43:18.668Z,25.00
2019-04-03T05:45:47.529Z,26.37
2019-04-03T05:48:17.655Z,23.87
2019-04-03T05:50:41.912Z,24.20
2019-04-03T05:53:08.768Z,26.63
2019-04-03T05:55:35.855Z,24.23
2019-04-03T05:58:03.136Z,24.80
2019-04-03T06:00:30.060Z,21.67
2019-04-03T06:02:58.086Z,21.07
2019-04-03T06:05:24.348Z,22.40
2019-04-03T06:07:52.698Z,22.57
2019-04-03T06:10:19.681Z,22.67
2019-04-03T06:12:46.783Z,22.00
2019-04-03T06:15:14.053Z,21.47
2019-04-03T06:17:41.167Z,19.50
2019-04-03T06:20:10.847Z,20.77
2019-04-03T06:22:35.437Z,21.57
2019-04-03T06:25:02.491Z,21.50
2019-04-03T06:27:29.613Z,20.50
2019-04-03T06:29:56.684Z,17.67
2019-04-03T06:32:24.827Z,18.27
2019-04-03T06:34:50.954Z,20.03
2019-04-03T06:37:18.094Z,20.43
2019-04-03T06:39:45.089Z,21.27
2019-04-03T06:42:13.300Z,19.27
2019-04-03T06:44:40.005Z,23.80
2019-04-03T06:47:07.050Z,19.17
2019-04-03T06:49:34.097Z,24.47
2019-04-03T06:52:01.190Z,22.53
2019-04-03T06:54:31.167Z,23.47
2019-04-03T06:56:55.452Z,23.03
2019-04-03T06:59:22.594Z,22.57
2019-04-03T07:01:52.000Z,23.00
2019-04-03T07:04:16.798Z,19.93
2019-04-03T07:06:45.239Z,20.27
2019-04-03T07:09:21.673Z,20.17
2019-04-03T07:11:38.149Z,19.17
2019-04-03T07:14:06.841Z,20.40
2019-04-03T07:16:33.987Z,15.20
2019-04-03T07:19:01.317Z,17.80
2019-04-03T07:21:28.288Z,15.43
2019-04-03T07:23:55.534Z,18.30
2019-04-03T07:26:22.493Z,21.50
2019-04-03T07:28:49.437Z,21.50
2019-04-03T07:31:16.591Z,18.07
2019-04-03T07:33:44.006Z,23.87
2019-04-03T07:36:11.739Z,23.37
2019-04-03T07:38:39.987Z,25.33
2019-04-03T07:41:07.248Z,22.90
2019-04-03T07:43:35.722Z,23.20
2019-04-03T07:46:03.425Z,22.23
2019-04-03T07:48:32.699Z,21.13
2019-04-03T07:50:57.264Z,22.20
2019-04-03T07:53:24.323Z,23.27
2019-04-03T07:55:51.606Z,20.07
2019-04-03T07:58:18.728Z,21.57
2019-04-03T08:00:45.775Z,21.17
2019-04-03T08:03:13.185Z,20.87
2019-04-03T08:05:40.652Z,20.97
2019-04-03T08:08:07.746Z,20.87
2019-04-03T08:10:37.819Z,20.80
2019-04-03T08:13:05.022Z,20.57
2019-04-03T08:15:31.297Z,21.27
2019-04-03T08:17:58.392Z,19.27
2019-04-03T08:20:25.962Z,19.57
2019-04-03T08:22:53.425Z,20.87
2019-04-03T08:25:20.689Z,19.20
2019-04-03T08:27:47.612Z,17.70
2019-04-03T08:30:17.018Z,19.20
2019-04-03T08:32:44.099Z,19.73
2019-04-03T08:35:21.154Z,21.00
2019-04-03T08:37:40.656Z,21.57
2019-04-03T08:40:05.866Z,21.00
2019-04-03T08:42:33.091Z,19.87
2019-04-03T08:45:00.025Z,20.77
2019-04-03T08:47:27.079Z,20.27
2019-04-03T08:49:56.444Z,15.73
2019-04-03T08:52:21.275Z,18.47
2019-04-03T08:54:48.320Z,19.83
2019-04-03T08:57:15.374Z,20.60
2019-04-03T09:00:00.112Z,17.13
2019-04-03T09:02:25.260Z,19.20
2019-04-03T09:04:52.384Z,19.37
2019-04-03T09:07:19.434Z,19.83
2019-04-03T09:09:46.447Z,16.33
2019-04-03T09:12:13.733Z,19.53
2019-04-03T09:14:40.740Z,18.57
2019-04-03T09:17:07.731Z,19.53
2019-04-03T09:19:35.496Z,17.50
2019-04-03T09:22:02.551Z,15.37
2019-04-03T09:24:30.153Z,19.47
2019-04-03T09:26:56.698Z,18.50
2019-04-03T09:29:24.616Z,16.73
2019-04-03T09:31:52.486Z,17.80
2019-04-03T09:34:20.394Z,16.73
2019-04-03T09:36:46.494Z,16.30
2019-04-03T09:39:14.630Z,18.47
2019-04-03T09:41:40.938Z,17.00
2019-04-03T09:44:07.926Z,17.03
2019-04-03T09:46:34.981Z,15.90
2019-04-03T09:49:05.781Z,17.87
2019-04-03T09:51:31.940Z,17.50
2019-04-03T09:53:59.022Z,14.07
2019-04-03T09:56:26.048Z,14.90
2019-04-03T09:58:55.888Z,14.53
2019-04-03T10:01:20.748Z,16.33
2019-04-03T10:03:47.801Z,17.03
2019-04-03T10:06:15.075Z,15.90
2019-04-03T10:08:42.006Z,14.97
2019-04-03T10:11:09.045Z,13.87
2019-04-03T10:13:36.172Z,14.37
2019-04-03T10:16:03.898Z,15.13
2019-04-03T10:18:30.497Z,15.90
2019-04-03T10:20:57.499Z,14.53
2019-04-03T10:23:24.493Z,13.43
2019-04-03T10:25:53.521Z,13.90
2019-04-03T10:28:20.126Z,13.33
2019-04-03T10:30:47.291Z,12.07
2019-04-03T10:33:14.332Z,12.03
2019-04-03T10:35:58.037Z,8.07
2019-04-03T10:38:25.525Z,12.67
2019-04-03T10:40:53.854Z,11.47
2019-04-03T10:43:19.883Z,12.30
2019-04-03T10:45:47.099Z,11.60
2019-04-03T10:48:14.400Z,10.43
2019-04-03T10:50:41.415Z,12.27
2019-04-03T10:53:08.782Z,7.60
2019-04-03T10:55:35.736Z,7.83
2019-04-03T10:58:02.969Z,6.30
2019-04-03T11:00:29.951Z,7.97
2019-04-03T11:02:57.349Z,7.60
2019-04-03T11:05:24.186Z,7.50
2019-04-03T11:07:51.407Z,7.87
2019-04-03T11:10:18.390Z,8.47
2019-04-03T11:12:45.441Z,7.17
2019-04-03T11:15:12.789Z,8.57
2019-04-03T11:17:39.739Z,7.27
2019-04-03T11:20:07.045Z,6.67
2019-04-03T11:22:41.130Z,8.60
2019-04-03T11:25:01.253Z,8.00
2019-04-03T11:27:40.791Z,8.10
2019-04-03T11:29:55.395Z,7.15
2019-04-03T11:32:23.187Z,7.97
2019-04-03T11:34:53.140Z,3.60
2019-04-03T11:37:17.680Z,7.93
2019-04-03T11:39:46.216Z,7.32
2019-04-03T11:42:22.787Z,6.37
2019-04-03T11:44:39.262Z,7.57
2019-04-03T11:47:06.271Z,8.05
2019-04-03T11:49:33.520Z,7.50
2019-04-03T11:52:01.976Z,8.40
2019-04-03T11:54:28.564Z,6.80
2019-04-03T11:56:56.659Z,5.72
2019-04-03T11:59:24.022Z,6.37
2019-04-03T12:01:49.889Z,6.72
2019-04-03T12:04:16.991Z,6.25
2019-04-03T12:06:44.308Z,8.05
2019-04-03T12:09:11.134Z,5.50
2019-04-03T12:11:39.195Z,6.57
2019-04-03T12:14:05.337Z,4.00
2019-04-03T12:16:32.630Z,7.93
2019-04-03T12:18:59.636Z,7.82
2019-04-03T12:21:26.690Z,6.50
2019-04-03T12:23:54.301Z,7.50
2019-04-03T12:26:21.339Z,8.38
2019-04-03T12:28:49.090Z,7.47
2019-04-03T12:31:21.638Z,7.22
2019-04-03T12:33:56.052Z,7.82
2019-04-03T12:36:16.144Z,6.20
2019-04-03T12:38:43.200Z,5.22
2019-04-03T12:41:10.242Z,3.97
2019-04-03T12:43:37.425Z,6.28
2019-04-03T12:46:04.543Z,6.15
2019-04-03T12:48:31.593Z,5.75
2019-04-03T12:51:00.195Z,5.15
2019-04-03T12:53:25.958Z,5.53
2019-04-03T12:55:55.757Z,5.50
2019-04-03T12:58:20.197Z,5.65
2019-04-03T13:00:47.278Z,5.18
2019-04-03T13:03:14.661Z,5.05
2019-04-03T13:05:41.803Z,3.72
2019-04-03T13:08:08.799Z,4.10
2019-04-03T13:10:51.219Z,5.50
2019-04-03T13:13:18.261Z,5.60
2019-04-03T13:15:45.307Z,6.53
2019-04-03T13:18:13.472Z,5.47
2019-04-03T13:20:40.434Z,3.80
2019-04-03T13:23:08.967Z,4.60
2019-04-03T13:25:36.755Z,5.55
2019-04-03T13:28:04.786Z,5.68
2019-04-03T13:30:30.574Z,4.87
2019-04-03T13:33:04.885Z,5.47
2019-04-03T13:35:26.541Z,4.90
2019-04-03T13:37:55.558Z,4.65
2019-04-03T13:40:20.503Z,4.85
2019-04-03T13:42:48.810Z,3.75
2019-04-03T13:45:15.014Z,2.70
2019-04-03T13:47:42.977Z,3.65
2019-04-03T13:50:09.482Z,4.07
2019-04-03T13:52:41.017Z,4.40
2019-04-03T13:55:03.412Z,3.65
2019-04-03T13:57:30.591Z,4.40
2019-04-03T14:00:01.544Z,4.15
2019-04-03T14:02:25.124Z,3.25
2019-04-03T14:04:54.167Z,3.50
2019-04-03T14:07:19.891Z,4.25
2019-04-03T14:09:52.248Z,3.15
2019-04-03T14:12:16.525Z,3.37
2019-04-03T14:14:41.336Z,3.58
2019-04-03T14:17:08.529Z,3.62
2019-04-03T14:19:44.344Z,3.90
2019-04-03T14:22:05.602Z,4.00
2019-04-03T14:24:40.132Z,3.03
2019-04-03T14:27:00.166Z,5.00
2019-04-03T14:29:29.634Z,5.43
2019-04-03T14:31:55.896Z,6.15
2019-04-03T14:34:23.271Z,6.43
2019-04-03T14:36:51.103Z,6.30
2019-04-03T14:39:18.399Z,6.62
2019-04-03T14:41:45.423Z,6.40
2019-04-03T14:44:12.646Z,6.50
2019-04-03T14:46:39.635Z,6.35
2019-04-03T14:49:06.767Z,5.97
2019-04-03T14:51:34.192Z,5.07
2019-04-03T14:54:01.587Z,5.00
2019-04-03T14:56:30.384Z,5.32
2019-04-03T14:58:57.840Z,5.45
2019-04-03T15:01:22.938Z,6.03
2019-04-03T15:03:49.993Z,6.32
2019-04-03T15:06:18.844Z,6.62
2019-04-03T15:08:45.987Z,5.95
2019-04-03T15:11:12.775Z,5.55
2019-04-03T15:13:40.133Z,5.55
2019-04-03T15:16:07.792Z,6.00
2019-04-03T15:18:34.951Z,6.47
2019-04-03T15:21:02.039Z,5.37
2019-04-03T15:23:29.046Z,5.72
2019-04-03T15:25:56.169Z,5.53
2019-04-03T15:28:23.400Z,5.35
2019-04-03T15:30:50.568Z,6.20
2019-04-03T15:33:18.463Z,6.20
2019-04-03T15:35:46.534Z,5.65
2019-04-03T15:38:15.066Z,5.25
2019-04-03T15:40:42.481Z,5.50
2019-04-03T15:43:12.013Z,5.07
2019-04-03T15:45:37.598Z,5.70
2019-04-03T15:48:04.876Z,4.85
2019-04-03T15:50:33.317Z,4.97
2019-04-03T15:52:59.196Z,5.05
2019-04-03T15:55:26.417Z,4.35
2019-04-03T15:57:53.920Z,4.78
2019-04-03T16:00:20.400Z,4.95
2019-04-03T16:02:47.897Z,4.60
2019-04-03T16:05:14.564Z,4.65
2019-04-03T16:07:42.538Z,4.85
2019-04-03T16:10:08.798Z,5.07
2019-04-03T16:12:36.549Z,4.87
2019-04-03T16:15:03.160Z,4.95
2019-04-03T16:17:32.497Z,4.72
2019-04-03T16:19:57.448Z,5.25
2019-04-03T16:22:24.817Z,5.60
2019-04-03T16:24:53.576Z,5.30
2019-04-03T16:27:18.858Z,6.37
2019-04-03T16:29:45.931Z,6.90
2019-04-03T16:32:12.958Z,6.78
2019-04-03T16:34:41.730Z,7.00
2019-04-03T16:37:07.185Z,6.97
2019-04-03T16:39:34.648Z,6.20
2019-04-03T16:42:01.456Z,6.60
2019-04-03T16:44:28.781Z,6.57
2019-04-03T16:46:55.658Z,6.37
2019-04-03T16:49:23.298Z,6.37
2019-04-03T16:51:50.304Z,6.47
2019-04-03T16:54:17.960Z,5.90
2019-04-03T16:56:45.306Z,6.35
2019-04-03T16:59:12.024Z,6.03
2019-04-03T17:01:39.576Z,6.75
2019-04-03T17:04:08.832Z,6.80
2019-04-03T17:06:33.478Z,6.75
2019-04-03T17:09:00.629Z,7.03
2019-04-03T17:11:27.682Z,6.97
2019-04-03T17:13:54.700Z,7.68
2019-04-03T17:16:22.517Z,6.85
2019-04-03T17:18:49.509Z,6.68
2019-04-03T17:21:16.558Z,6.45
2019-04-03T17:23:45.562Z,6.22
2019-04-03T17:26:12.233Z,7.18
2019-04-03T17:28:40.555Z,6.65
2019-04-03T17:31:06.428Z,7.10
2019-04-03T17:33:35.171Z,6.78
2019-04-03T17:36:02.757Z,6.87
2019-04-03T17:38:32.667Z,7.10
2019-04-03T17:40:56.878Z,7.50
2019-04-03T17:43:24.741Z,7.62
2019-04-03T17:45:51.761Z,11.27
2019-04-03T17:48:18.812Z,9.20
2019-04-03T17:50:45.883Z,8.73
2019-04-03T17:53:12.939Z,7.97
2019-04-03T17:55:41.220Z,7.43
2019-04-03T17:58:07.238Z,7.87
2019-04-03T18:00:34.390Z,7.90
2019-04-03T18:03:01.433Z,8.57
2019-04-03T18:05:28.481Z,7.27
2019-04-03T18:07:58.505Z,8.30
2019-04-03T18:10:24.422Z,7.87
2019-04-03T18:12:52.337Z,9.32
2019-04-03T18:15:19.236Z,8.10
2019-04-03T18:17:46.252Z,8.37
2019-04-03T18:20:13.478Z,7.90
2019-04-03T18:22:40.456Z,8.57
2019-04-03T18:25:09.893Z,7.83
2019-04-03T18:27:36.909Z,8.60
2019-04-03T18:30:03.985Z,8.83
2019-04-03T18:32:31.047Z,9.60
2019-04-03T18:34:58.083Z,10.17
2019-04-03T18:37:25.131Z,9.73
2019-04-03T18:39:52.492Z,9.67
2019-04-03T18:42:21.537Z,10.70
2019-04-03T18:44:48.605Z,10.63
2019-04-03T18:47:17.421Z,10.37
2019-04-03T18:49:44.475Z,10.53
2019-04-03T18:52:11.518Z,10.53
2019-04-03T18:54:38.568Z,10.63
2019-04-03T18:57:06.506Z,10.03
2019-04-03T18:59:33.589Z,10.37
2019-04-03T19:02:02.008Z,10.53
2019-04-03T19:04:27.995Z,9.60
2019-04-03T19:06:55.042Z,10.03
2019-04-03T19:09:22.193Z,9.00
2019-04-03T19:11:51.344Z,9.37
2019-04-03T19:14:26.539Z,10.70
2019-04-03T19:16:47.973Z,10.23
2019-04-03T19:19:11.000Z,10.83
2019-04-03T19:21:46.024Z,10.70
2019-04-03T19:24:13.105Z,9.87
2019-04-03T19:26:40.132Z,9.93
2019-04-03T19:29:08.019Z,10.27
2019-04-03T19:31:36.098Z,10.00
2019-04-03T19:34:05.343Z,10.27
2019-04-03T19:36:32.525Z,11.33
2019-04-03T19:39:00.597Z,9.90
2019-04-03T19:41:28.977Z,9.37
2019-04-03T19:43:57.050Z,9.47
2019-04-03T19:46:25.122Z,10.30
2019-04-03T19:48:52.276Z,10.60
2019-04-03T19:51:20.200Z,10.13
2019-04-03T19:53:59.089Z,12.70
2019-04-03T19:56:17.848Z,33.30
2019-04-03T19:58:46.002Z,12.83
2019-04-03T20:01:14.173Z,11.73
2019-04-03T20:03:44.090Z,11.60
2019-04-03T20:06:08.582Z,11.93
2019-04-03T20:08:36.858Z,11.63
2019-04-03T20:11:05.056Z,11.90
2019-04-03T20:13:32.395Z,11.83
2019-04-03T20:16:01.112Z,11.60
2019-04-03T20:18:29.042Z,13.03
2019-04-03T20:20:57.124Z,11.83
2019-04-03T20:23:24.368Z,12.77
2019-04-03T20:25:52.857Z,12.30
2019-04-03T20:28:23.500Z,12.67
2019-04-03T20:30:49.925Z,13.47
2019-04-03T20:33:18.000Z,12.60
2019-04-03T20:35:45.149Z,13.40
2019-04-03T20:38:13.116Z,13.40
2019-04-03T20:40:41.183Z,11.90
2019-04-03T20:43:11.093Z,12.27
2019-04-03T20:45:39.283Z,12.43
2019-04-03T20:48:07.146Z,13.10
2019-04-03T20:50:36.019Z,12.20
2019-04-03T20:53:02.767Z,13.07
2019-04-03T20:55:29.854Z,11.77
2019-04-03T20:57:57.360Z,12.40
2019-04-03T21:00:24.538Z,12.80
2019-04-03T21:02:51.687Z,11.50
2019-04-03T21:05:19.120Z,12.43
2019-04-03T21:07:46.194Z,13.13
2019-04-03T21:10:13.344Z,13.43
2019-04-03T21:12:40.365Z,12.70
2019-04-03T21:15:09.358Z,13.43
2019-04-03T21:17:35.930Z,14.43
2019-04-03T21:20:02.971Z,12.47
2019-04-03T21:22:30.423Z,12.67
2019-04-03T21:24:57.176Z,13.40
2019-04-03T21:27:24.226Z,13.33
2019-04-03T21:29:51.377Z,13.33
2019-04-03T21:32:18.419Z,13.63
2019-04-03T21:34:45.469Z,14.77
2019-04-03T21:37:14.014Z,13.07
2019-04-03T21:39:39.771Z,13.83
2019-04-03T21:42:06.898Z,13.33
2019-04-03T21:44:33.975Z,13.30
2019-04-03T21:47:00.991Z,13.90
2019-04-03T21:49:28.066Z,13.63
2019-04-03T21:51:55.084Z,12.77
2019-04-03T21:54:22.166Z,13.47
2019-04-03T21:56:49.426Z,12.73
2019-04-03T21:59:16.467Z,13.27
2019-04-03T22:01:45.224Z,12.90
2019-04-03T22:04:10.770Z,13.30
2019-04-03T22:06:37.818Z,12.83
2019-04-03T22:09:04.969Z,12.43
2019-04-03T22:11:35.588Z,12.67
2019-04-03T22:14:00.500Z,12.97
2019-04-03T22:16:30.414Z,13.43
2019-04-03T22:18:57.418Z,12.97
2019-04-03T22:21:24.512Z,12.43
2019-04-03T22:23:54.750Z,14.23
2019-04-03T22:26:21.886Z,14.63
2019-04-03T22:28:55.883Z,13.97
2019-04-03T22:31:23.320Z,12.10
2019-04-03T22:33:50.101Z,3.80
2019-04-03T22:39:15.738Z,5.97
2019-04-03T22:41:43.349Z,7.73
2019-04-03T22:44:10.037Z,7.27
2019-04-03T22:46:38.928Z,6.27
2019-04-03T22:49:05.986Z,8.70
2019-04-03T22:51:37.725Z,6.93
2019-04-03T22:54:04.683Z,9.30
2019-04-03T22:56:31.758Z,9.23
2019-04-03T22:58:58.779Z,8.47
2019-04-03T23:01:25.827Z,9.70
2019-04-03T23:03:52.881Z,9.83
2019-04-03T23:06:20.033Z,7.57
2019-04-03T23:08:47.075Z,10.27
2019-04-03T23:11:14.125Z,10.63
2019-04-03T23:13:41.179Z,7.53
2019-04-03T23:16:09.619Z,8.83
2019-04-03T23:18:35.372Z,10.87
2019-04-03T23:21:02.425Z,11.47
2019-04-03T23:23:29.475Z,9.67
2019-04-03T23:25:56.523Z,10.63
2019-04-03T23:28:23.568Z,9.93
2019-04-03T23:30:50.622Z,10.37
2019-04-03T23:33:17.707Z,8.50
2019-04-03T23:35:45.738Z,9.97
2019-04-03T23:38:12.784Z,7.63
2019-04-03T23:40:39.784Z,8.77
2019-04-03T23:43:08.845Z,9.47
2019-04-03T23:45:34.447Z,9.00
2019-04-03T23:48:01.491Z,9.40
2019-04-03T23:50:28.541Z,9.43
2019-04-03T23:52:55.594Z,8.90
2019-04-03T23:55:22.636Z,10.50
2019-04-03T23:57:51.433Z,8.53
